Time;durP1;ratioP1;P1;durP2;ratioP2;P2;SDS_P1;SDS_P2;PMS_P1;PMS_P2;Temp;Humidity;BMP_temperature;BMP_pressure;BME280_temperature;BME280_humidity;BME280_pressure;Samples;Min_cycle;Max_cycle;Signal;HPM_P1;HPM_P2
2021/04/19 00:01:21;;;;;;;;;5.25;5.25;;;;;25.93;68.42;98875.69;4990059;28;9526;-74
2021/04/19 00:03:49;;;;;;;;;2.75;2.75;;;;;26.04;67.58;98894.72;4991948;28;9573;-74
2021/04/19 00:06:17;;;;;;;;;2.75;2.75;;;;;26.06;67.64;98902.47;4992281;28;8852;-74
2021/04/19 00:08:45;;;;;;;;;5.25;4.00;;;;;26.05;68.12;98903.63;4989962;28;8910;-74
2021/04/19 00:11:14;;;;;;;;;5.00;5.00;;;;;25.95;68.05;98892.31;4989841;28;8927;-74
2021/04/19 00:13:43;;;;;;;;;4.25;4.25;;;;;26.09;67.65;98907.16;4992310;28;8913;-74
2021/04/19 00:16:11;;;;;;;;;5.25;5.25;;;;;26.06;67.33;98897.06;4991691;28;8846;-74
2021/04/19 00:18:39;;;;;;;;;3.00;3.00;;;;;26.15;66.96;98909.16;4992213;28;8863;-74
2021/04/19 00:21:08;;;;;;;;;4.00;4.00;;;;;25.91;67.80;98874.50;4992131;28;8872;-73
2021/04/19 00:23:36;;;;;;;;;3.75;3.75;;;;;26.12;67.38;98898.31;4992061;28;8918;-74
2021/04/19 00:26:04;;;;;;;;;3.75;3.75;;;;;26.05;67.67;98890.09;4974846;28;8861;-74
2021/04/19 00:28:33;;;;;;;;;4.25;4.25;;;;;26.20;68.02;98905.38;4973288;28;8859;-73
2021/04/19 00:31:03;;;;;;;;;4.25;4.25;;;;;26.15;67.49;98908.38;4991230;28;8856;-74
2021/04/19 00:33:31;;;;;;;;;3.50;3.50;;;;;26.21;66.92;98907.72;4991528;28;8862;-74
2021/04/19 00:36:00;;;;;;;;;3.75;3.75;;;;;26.05;65.99;98890.09;4974063;28;8834;-74
2021/04/19 00:38:28;;;;;;;;;15.25;15.25;;;;;26.36;66.90;98932.25;4988804;28;9046;-75
2021/04/19 00:41:00;;;;;;;;;3.25;3.25;;;;;26.29;66.26;98912.06;4990670;28;8870;-73
2021/04/19 00:43:29;;;;;;;;;4.00;4.00;;;;;26.36;65.93;98916.81;4987493;28;8871;-77
2021/04/19 00:46:02;;;;;;;;;4.25;4.25;;;;;26.40;65.79;98908.75;4987585;28;8909;-76
2021/04/19 00:48:35;;;;;;;;;4.00;4.00;;;;;26.33;65.29;98902.09;4990496;28;8832;-76
2021/04/19 00:51:06;;;;;;;;;6.75;6.75;;;;;26.54;64.38;98920.53;4972741;28;8846;-77
2021/04/19 00:53:36;;;;;;;;;4.00;4.00;;;;;26.48;65.77;98915.81;4988669;28;8922;-76
2021/04/19 00:56:05;;;;;;;;;4.50;4.50;;;;;26.52;63.93;98922.81;4988735;28;8840;-74
2021/04/19 00:58:35;;;;;;;;;5.00;5.00;;;;;26.57;64.93;98932.53;4972980;28;8875;-74
2021/04/19 01:01:05;;;;;;;;;5.25;5.25;;;;;26.57;65.34;98927.91;4986750;28;8848;-73
2021/04/19 01:03:35;;;;;;;;;6.00;6.00;;;;;26.54;63.79;98923.22;4970990;28;8930;-74
2021/04/19 01:06:05;;;;;;;;;5.00;5.00;;;;;26.49;64.25;98910.03;4987288;28;9619;-73
2021/04/19 01:08:34;;;;;;;;;4.75;4.75;;;;;26.64;64.85;98930.69;4986693;28;8859;-74
2021/04/19 01:11:04;;;;;;;;;2.75;2.75;;;;;26.69;64.67;98934.22;4987435;28;8981;-74
2021/04/19 01:13:32;;;;;;;;;4.00;4.00;;;;;26.69;65.57;98936.91;4985879;28;8941;-74
2021/04/19 01:16:01;;;;;;;;;3.67;3.67;;;;;26.61;64.77;98923.31;4989807;28;9632;-73
2021/04/19 01:18:29;;;;;;;;;3.00;3.00;;;;;26.73;64.12;98940.44;4990759;28;8878;-73
2021/04/19 01:20:58;;;;;;;;;4.00;4.00;;;;;26.76;63.27;98945.13;4990714;28;8971;-73
2021/04/19 01:23:26;;;;;;;;;4.50;4.50;;;;;26.71;64.68;98926.50;4990599;28;8852;-74
2021/04/19 01:25:54;;;;;;;;;3.75;3.75;;;;;26.68;63.41;98917.19;4973416;28;9757;-74
2021/04/19 01:28:43;;;;;;;;;2.75;2.75;;;;;26.83;64.16;98945.97;4990691;28;8994;-75
2021/04/19 01:31:11;;;;;;;;;3.50;3.50;;;;;26.85;63.28;98938.28;4991276;28;8926;-73
2021/04/19 01:33:40;;;;;;;;;3.25;3.25;;;;;26.67;63.19;98909.44;4990797;28;8848;-74
2021/04/19 01:36:09;;;;;;;;;3.00;3.00;;;;;26.82;63.50;98944.44;4990884;28;8946;-73
2021/04/19 01:38:37;;;;;;;;;4.00;4.00;;;;;26.85;64.00;98942.91;4990642;28;8921;-74
2021/04/19 01:41:06;;;;;;;;;3.25;3.25;;;;;26.88;63.10;98945.66;4990804;28;8910;-76
2021/04/19 01:43:34;;;;;;;;;3.00;3.00;;;;;26.86;64.54;98944.47;4991257;28;8836;-74
2021/04/19 01:46:03;;;;;;;;;3.75;3.75;;;;;26.96;64.95;98968.97;4990271;28;8848;-76
2021/04/19 01:48:31;;;;;;;;;3.00;3.00;;;;;26.93;64.12;98955.38;4973210;28;8840;-74
2021/04/19 01:51:00;;;;;;;;;3.00;3.00;;;;;27.11;64.35;98975.31;4991014;28;8856;-72
2021/04/19 01:53:28;;;;;;;;;2.50;2.50;;;;;27.14;63.88;98965.69;4990753;28;8855;-72
2021/04/19 01:55:56;;;;;;;;;3.25;3.25;;;;;27.26;64.66;98976.25;4990745;28;8918;-72
2021/04/19 01:58:26;;;;;;;;;3.25;3.00;;;;;27.31;64.90;98967.75;4990217;28;9588;-72
2021/04/19 02:00:58;;;;;;;;;3.00;3.00;;;;;27.32;64.96;98957.69;4990928;28;8852;-74
2021/04/19 02:03:41;;;;;;;;;3.75;3.75;;;;;27.40;63.93;98968.22;4990988;28;8840;-73
2021/04/19 02:06:34;;;;;;;;;4.50;4.50;;;;;27.46;62.81;98969.44;4990685;28;9025;-72
2021/04/19 02:09:13;;;;;;;;;4.50;4.50;;;;;27.50;62.66;98966.78;4972958;28;8836;-74
2021/04/19 02:11:56;;;;;;;;;4.00;4.00;;;;;27.51;62.77;98973.75;4992728;28;8932;-72
2021/04/19 02:14:30;;;;;;;;;3.00;3.00;;;;;27.55;62.85;98979.97;4994504;28;8871;-74
2021/04/19 02:17:08;;;;;;;;;3.50;3.50;;;;;27.61;62.51;98967.66;4994379;28;8856;-74
2021/04/19 02:19:44;;;;;;;;;2.50;2.50;;;;;27.64;62.77;98966.91;4993698;28;9585;-74
2021/04/19 02:22:22;;;;;;;;;4.75;4.75;;;;;27.69;62.85;98977.41;4994364;28;8890;-75
2021/04/19 02:24:55;;;;;;;;;4.00;4.00;;;;;27.75;62.34;98967.00;4992760;28;8844;-73
2021/04/19 02:27:30;;;;;;;;;2.75;2.75;;;;;27.80;62.27;98967.44;4994344;28;8852;-73
2021/04/19 02:30:02;;;;;;;;;3.25;3.25;;;;;27.91;62.33;98967.53;4993109;28;8871;-75
2021/04/19 02:32:37;;;;;;;;;5.00;4.00;;;;;27.89;62.01;98953.56;4994299;28;8859;-74
2021/04/19 02:35:09;;;;;;;;;3.75;3.75;;;;;28.08;61.98;98974.22;4993467;28;8820;-74
2021/04/19 02:37:40;;;;;;;;;3.75;3.75;;;;;28.11;61.75;98963.41;4991616;28;8848;-73
2021/04/19 02:40:10;;;;;;;;;3.25;3.25;;;;;28.17;61.66;98967.31;4992884;28;8863;-74
2021/04/19 02:42:42;;;;;;;;;3.75;3.75;;;;;28.22;61.57;98966.19;4993591;28;8872;-75
2021/04/19 02:45:14;;;;;;;;;3.25;3.25;;;;;28.14;61.22;98940.16;4993445;28;8918;-75
2021/04/19 02:47:45;;;;;;;;;4.25;4.25;;;;;28.33;61.40;98958.91;4994046;28;8962;-73
2021/04/19 02:50:18;;;;;;;;;3.75;3.75;;;;;28.39;60.55;98937.63;4992902;28;8930;-74
2021/04/19 02:52:48;;;;;;;;;3.50;3.50;;;;;28.52;59.87;98944.25;4993313;28;8929;-72
2021/04/19 02:55:20;;;;;;;;;3.25;3.25;;;;;28.58;59.49;98946.22;4993170;28;8840;-72
2021/04/19 02:58:01;;;;;;;;;3.50;3.50;;;;;28.63;59.51;98950.47;4992563;28;8839;-75
2021/04/19 03:00:36;;;;;;;;;3.00;3.00;;;;;28.69;59.60;98956.31;4991012;28;8832;-74
2021/04/19 03:03:12;;;;;;;;;3.25;3.25;;;;;28.76;59.13;98961.78;4991866;28;8860;-74
2021/04/19 03:05:42;;;;;;;;;2.50;2.50;;;;;28.73;59.11;98943.53;4993161;28;8856;-73
2021/04/19 03:08:16;;;;;;;;;3.50;3.50;;;;;28.86;58.39;98950.97;4992923;28;8882;-76
2021/04/19 03:10:54;;;;;;;;;3.75;3.75;;;;;28.89;59.32;98946.72;4991169;28;8856;-75
2021/04/19 03:13:25;;;;;;;;;4.75;3.75;;;;;28.85;58.36;98932.34;4992497;28;8867;-74
2021/04/19 03:15:57;;;;;;;;;29.50;29.00;;;;;28.96;58.77;98943.25;4989852;28;9675;-74
2021/04/19 03:18:28;;;;;;;;;3.25;3.25;;;;;28.99;57.90;98947.91;4991550;28;8844;-74
2021/04/19 03:21:19;;;;;;;;;2.75;2.75;;;;;29.04;58.32;98950.25;4992681;28;8840;-75
2021/04/19 03:23:52;;;;;;;;;4.00;4.00;;;;;29.05;58.02;98940.94;4991386;28;9609;-75
2021/04/19 03:26:23;;;;;;;;;4.25;4.25;;;;;29.04;59.53;98944.81;4991805;28;8858;-75
2021/04/19 03:28:53;;;;;;;;;2.75;2.75;;;;;29.18;58.05;98961.94;4994191;28;8836;-75
2021/04/19 03:31:26;;;;;;;;;5.00;5.00;;;;;29.20;57.90;98953.38;4993056;28;8895;-73
2021/04/19 03:33:58;;;;;;;;;3.25;3.25;;;;;29.18;58.27;98942.91;4990715;28;8863;-73
2021/04/19 03:36:30;;;;;;;;;3.75;3.75;;;;;29.26;58.02;98945.63;4992875;28;8824;-73
2021/04/19 03:39:01;;;;;;;;;4.00;4.00;;;;;29.20;57.35;98934.38;4990552;28;8836;-73
2021/04/19 03:41:35;;;;;;;;;4.00;4.00;;;;;29.34;58.18;98941.75;4961063;28;8860;-74
2021/04/19 03:44:05;;;;;;;;;3.00;3.00;;;;;29.37;57.13;98936.34;4993420;28;8907;-73
2021/04/19 03:46:37;;;;;;;;;4.25;4.25;;;;;29.49;57.92;98937.91;4993507;28;8860;-74
2021/04/19 03:49:12;;;;;;;;;3.50;3.50;;;;;29.53;56.78;98936.75;4993607;28;8844;-73
2021/04/19 03:51:44;;;;;;;;;4.00;4.00;;;;;29.55;56.58;98917.34;4992908;28;8836;-73
2021/04/19 03:54:14;;;;;;;;;3.50;3.50;;;;;29.69;56.12;98916.56;4993048;28;8859;-74
2021/04/19 03:56:44;;;;;;;;;1.75;1.75;;;;;29.68;54.94;98910.34;4992426;28;8832;-73
2021/04/19 03:59:18;;;;;;;;;2.50;2.50;;;;;29.84;57.25;98920.81;4991216;28;8836;-73
2021/04/19 04:01:47;;;;;;;;;2.75;2.75;;;;;29.86;54.94;98918.47;4990604;28;8832;-74
2021/04/19 04:04:19;;;;;;;;;3.25;3.25;;;;;29.83;56.17;98911.09;4989515;28;8828;-72
2021/04/19 04:06:49;;;;;;;;;2.75;2.75;;;;;29.74;55.36;98886.25;4973399;28;8842;-73
2021/04/19 04:09:18;;;;;;;;;2.00;2.00;;;;;30.02;55.69;98920.78;4992372;28;8820;-73
2021/04/19 04:11:47;;;;;;;;;3.00;2.75;;;;;30.04;55.05;98918.44;4993112;28;8840;-73
2021/04/19 04:14:15;;;;;;;;;2.75;2.75;;;;;30.11;54.15;98915.69;4993688;28;8961;-74
2021/04/19 04:16:44;;;;;;;;;3.75;3.75;;;;;30.21;57.13;98909.47;4992997;28;8922;-73
2021/04/19 04:19:13;;;;;;;;;3.25;3.25;;;;;30.25;56.53;98896.63;4992586;28;8863;-74
2021/04/19 04:21:41;;;;;;;;;2.50;2.50;;;;;30.28;54.24;98889.59;4990560;28;8922;-74
2021/04/19 04:24:10;;;;;;;;;3.00;3.00;;;;;30.30;54.72;98874.44;4992172;28;8863;-73
2021/04/19 04:26:39;;;;;;;;;2.75;2.75;;;;;30.46;54.23;98882.91;4992181;28;8872;-73
2021/04/19 04:29:07;;;;;;;;;3.00;3.00;;;;;30.56;54.34;98883.25;4992852;28;8824;-73
2021/04/19 04:31:35;;;;;;;;;2.25;2.25;;;;;30.64;55.91;98882.09;4975322;28;8824;-73
2021/04/19 04:34:03;;;;;;;;;3.00;3.00;;;;;30.66;54.05;98875.06;4992142;28;8864;-73
2021/04/19 04:36:31;;;;;;;;;2.75;2.75;;;;;30.73;54.66;98880.47;4992037;28;8879;-73
2021/04/19 04:38:59;;;;;;;;;3.50;3.50;;;;;30.79;53.94;98870.72;4989541;28;8836;-73
2021/04/19 04:41:28;;;;;;;;;2.25;2.00;;;;;30.90;55.21;98859.75;4992937;28;8840;-73
2021/04/19 04:43:59;;;;;;;;;3.00;3.00;;;;;30.98;54.75;98855.81;4992329;28;8899;-74
2021/04/19 04:46:53;;;;;;;;;2.25;2.25;;;;;30.95;53.93;98840.25;4992761;28;8843;-74
2021/04/19 04:49:38;;;;;;;;;1.50;1.50;;;;;30.82;53.82;98806.50;4992391;28;8947;-75
2021/04/19 04:52:07;;;;;;;;;1.75;1.00;;;;;31.03;54.15;98827.34;4955667;28;8857;-74
2021/04/19 04:54:38;;;;;;;;;1.40;1.40;;;;;31.04;52.69;98813.34;4984441;28;8926;-74
2021/04/19 04:57:07;;;;;;;;;1.25;1.25;;;;;31.15;52.25;98810.53;4991597;28;8860;-74
2021/04/19 04:59:38;;;;;;;;;1.00;1.00;;;;;31.18;51.30;98789.91;4991112;28;9027;-74
2021/04/19 05:02:08;;;;;;;;;1.50;1.50;;;;;31.36;52.84;98791.25;4989701;28;8847;-73
2021/04/19 05:04:37;;;;;;;;;1.25;1.25;;;;;31.47;52.97;98794.63;4989419;28;8979;-74
2021/04/19 05:07:07;;;;;;;;;1.80;1.80;;;;;31.43;51.83;98758.47;4987189;28;8875;-74
2021/04/19 05:09:37;;;;;;;;;0.60;0.60;;;;;31.71;51.95;98779.22;4985377;28;8840;-74
2021/04/19 05:12:06;;;;;;;;;0.80;0.80;;;;;31.81;51.38;98780.28;4984470;28;8836;-75
2021/04/19 05:14:37;;;;;;;;;0.80;0.80;;;;;31.92;54.13;98769.22;4987737;28;8867;-74
2021/04/19 05:17:07;;;;;;;;;0.60;0.60;;;;;32.00;51.84;98767.97;4986430;28;8855;-74
2021/04/19 05:19:36;;;;;;;;;1.60;1.60;;;;;32.03;49.75;98757.00;4965606;28;8899;-74
2021/04/19 05:22:08;;;;;;;;;2.20;2.20;;;;;32.08;54.00;98751.09;4988289;28;8851;-74
2021/04/19 05:24:37;;;;;;;;;1.00;1.00;;;;;31.99;53.54;98722.75;4987378;28;8840;-72
2021/04/19 05:27:05;;;;;;;;;1.00;1.00;;;;;32.07;53.79;98740.59;4990006;28;8918;-72
2021/04/19 05:29:34;;;;;;;;;5.75;5.75;;;;;31.76;50.19;98707.84;4990940;28;8864;-72
2021/04/19 05:32:02;;;;;;;;;1.60;1.60;;;;;32.03;52.28;98731.66;4990183;28;8903;-74
2021/04/19 05:34:31;;;;;;;;;1.00;1.00;;;;;32.13;50.55;98724.53;4990322;28;8975;-73
2021/04/19 05:37:02;;;;;;;;;1.00;1.00;;;;;32.21;51.26;98720.50;4990175;28;8840;-73
2021/04/19 05:39:35;;;;;;;;;2.40;2.40;;;;;32.33;52.19;98717.25;4987912;28;8848;-72
2021/04/19 05:42:05;;;;;;;;;2.00;2.00;;;;;32.30;49.90;98694.28;4967939;28;8859;-73
2021/04/19 05:44:35;;;;;;;;;2.80;2.80;;;;;32.33;49.13;98677.06;4981217;28;8852;-72
2021/04/19 05:47:04;;;;;;;;;0.60;0.60;;;;;32.34;49.95;98664.97;4985348;28;8836;-71
2021/04/19 05:49:32;;;;;;;;;0.80;0.80;;;;;32.46;53.12;98674.53;4977645;28;8840;-71
2021/04/19 05:52:03;;;;;;;;;3.40;3.40;;;;;32.49;51.10;98681.88;4986949;28;8850;-72
2021/04/19 05:54:33;;;;;;;;;2.20;2.20;;;;;32.47;49.33;98680.75;4977540;28;8843;-71
2021/04/19 05:57:28;;;;;;;;;0.80;0.80;;;;;32.52;49.14;98672.06;4984794;28;9610;-71
2021/04/19 06:00:21;;;;;;;;;0.80;0.80;;;;;32.62;50.13;98660.19;4991976;28;8856;-71
2021/04/19 06:03:14;;;;;;;;;1.00;1.00;;;;;32.83;48.12;98668.03;4988881;28;8856;-73
2021/04/19 06:06:10;;;;;;;;;0.20;0.20;;;;;33.00;49.93;98657.97;4984275;28;9000;-72
2021/04/19 06:08:51;;;;;;;;;1.00;1.00;;;;;33.18;47.68;98646.69;4985553;28;8864;-72
2021/04/19 06:11:26;;;;;;;;;0.00;0.00;;;;;33.18;47.74;98617.41;4991503;28;8957;-71
2021/04/19 06:13:57;;;;;;;;;1.00;1.00;;;;;33.52;47.79;98636.25;4992188;28;8856;-72
2021/04/19 06:16:27;;;;;;;;;0.40;0.40;;;;;33.69;44.70;98637.84;4991491;28;9029;-73
2021/04/19 06:18:56;;;;;;;;;0.00;0.00;;;;;33.77;45.49;98621.28;4983943;28;8957;-72
2021/04/19 06:21:24;;;;;;;;;0.40;0.40;;;;;33.84;46.19;98621.13;4984974;28;8856;-74
2021/04/19 06:23:53;;;;;;;;;0.80;0.80;;;;;33.87;46.20;98620.25;4971968;28;8855;-74
2021/04/19 06:26:21;;;;;;;;;0.00;0.00;;;;;33.95;47.87;98624.38;4983054;28;8913;-73
2021/04/19 06:28:50;;;;;;;;;1.00;1.00;;;;;33.94;49.57;98609.16;4984759;28;8856;-72
2021/04/19 06:31:22;;;;;;;;;0.80;0.80;;;;;34.03;46.97;98607.34;4988779;28;8889;-73
2021/04/19 06:34:11;;;;;;;;;0.60;0.60;;;;;34.12;44.24;98598.53;4979636;28;8839;-72
2021/04/19 06:36:41;;;;;;;;;0.80;0.80;;;;;34.14;44.53;98596.16;4980440;28;8879;-73
2021/04/19 06:39:12;;;;;;;;;0.20;0.20;;;;;34.10;44.70;98583.75;4984812;28;8873;-73
2021/04/19 06:41:42;;;;;;;;;0.80;0.80;;;;;34.16;46.87;98588.28;4983056;28;9546;-75
2021/04/19 06:44:15;;;;;;;;;0.00;0.00;;;;;34.23;47.45;98582.63;4983479;28;8890;-73
2021/04/19 06:46:45;;;;;;;;;0.60;0.60;;;;;34.31;47.42;98578.53;4973731;28;8840;-76
2021/04/19 06:49:14;;;;;;;;;0.40;0.40;;;;;34.38;45.38;98574.09;4992687;28;8850;-75
2021/04/19 06:51:43;;;;;;;;;0.00;0.00;;;;;34.41;46.14;98571.25;4992112;28;8910;-77
2021/04/19 06:54:12;;;;;;;;;0.00;0.00;;;;;34.38;46.17;98557.66;4990050;28;8950;-75
2021/04/19 06:56:43;;;;;;;;;0.00;0.00;;;;;34.35;44.87;98556.53;4987397;28;8844;-75
2021/04/19 06:59:15;;;;;;;;;1.00;1.00;;;;;34.37;41.84;98556.88;4987703;28;8844;-76
2021/04/19 07:01:45;;;;;;;;;0.20;0.20;;;;;34.26;45.66;98534.44;4990157;28;8963;-78
2021/04/19 07:04:28;;;;;;;;;0.00;0.00;;;;;34.21;47.38;98515.81;4989353;28;8919;-76
2021/04/19 07:06:59;;;;;;;;;1.00;1.00;;;;;34.40;45.25;98531.38;4986876;28;8840;-74
2021/04/19 07:09:33;;;;;;;;;0.00;0.00;;;;;34.33;44.09;98515.13;4984871;28;8844;-75
2021/04/19 07:12:10;;;;;;;;;0.80;0.80;;;;;34.49;45.58;98533.50;4988851;28;9590;-76
2021/04/19 07:14:40;;;;;;;;;0.80;0.80;;;;;34.47;43.91;98516.72;4988683;28;8856;-75
2021/04/19 07:17:09;;;;;;;;;0.60;0.60;;;;;34.56;43.54;98516.88;4966343;28;8898;-76
2021/04/19 07:19:39;;;;;;;;;0.00;0.00;;;;;34.68;43.50;98516.13;4981679;28;9616;-74
2021/04/19 07:22:10;;;;;;;;;0.00;0.00;;;;;34.76;44.36;98500.25;4971786;28;8871;-75
2021/04/19 07:24:39;;;;;;;;;0.00;0.00;;;;;34.86;42.72;98497.25;4989833;28;8832;-78
2021/04/19 07:27:09;;;;;;;;;1.40;0.80;;;;;34.95;43.27;98483.66;4970956;28;8828;-78
2021/04/19 07:29:40;;;;;;;;;1.20;1.20;;;;;35.08;42.92;98493.88;4989852;28;8983;-76
2021/04/19 07:32:10;;;;;;;;;0.40;0.40;;;;;35.17;43.87;98493.97;4986204;28;9015;-78
2021/04/19 07:34:39;;;;;;;;;0.40;0.40;;;;;35.21;43.71;98484.44;4960779;28;8984;-77
2021/04/19 07:37:11;;;;;;;;;0.00;0.00;;;;;35.26;41.82;98483.88;4986233;28;8847;-76
2021/04/19 07:39:41;;;;;;;;;0.00;0.00;;;;;35.38;40.34;98489.84;4994135;28;8882;-75
2021/04/19 07:42:11;;;;;;;;;0.20;0.20;;;;;35.47;42.80;98496.19;4994022;28;8864;-75
2021/04/19 07:44:52;;;;;;;;;0.00;0.00;;;;;35.55;43.09;98491.25;4994094;28;8934;-74
2021/04/19 07:47:41;;;;;;;;;0.00;0.00;;;;;35.59;41.09;98495.41;4993481;28;8848;-74
2021/04/19 07:50:12;;;;;;;;;0.60;0.60;;;;;35.65;43.59;98481.91;4992004;28;8872;-74
2021/04/19 07:53:07;;;;;;;;;0.00;0.00;;;;;35.71;41.17;98471.13;4993914;28;8883;-74
2021/04/19 07:55:37;;;;;;;;;0.80;0.80;;;;;35.74;43.57;98464.75;4993580;28;8867;-76
2021/04/19 07:58:19;;;;;;;;;0.20;0.20;;;;;35.82;41.64;98466.09;4993375;28;8844;-75
2021/04/19 08:00:47;;;;;;;;;0.00;0.00;;;;;35.82;44.05;98457.84;4993458;28;8865;-76
2021/04/19 08:03:18;;;;;;;;;0.40;0.40;;;;;35.89;42.46;98469.38;4988994;28;8860;-77
2021/04/19 08:05:49;;;;;;;;;1.40;1.40;;;;;35.90;42.30;98470.91;4986433;28;8969;-74
2021/04/19 08:08:30;;;;;;;;;0.20;0.20;;;;;35.88;43.06;98453.34;4988286;28;8832;-75
2021/04/19 08:11:18;;;;;;;;;1.00;1.00;;;;;35.90;44.51;98456.41;4991029;28;8922;-75
2021/04/19 08:13:47;;;;;;;;;0.80;0.80;;;;;35.75;40.60;98447.84;4991449;28;8843;-74
2021/04/19 08:16:23;;;;;;;;;0.80;0.80;;;;;35.70;46.03;98448.41;4989465;28;8849;-74
2021/04/19 08:19:01;;;;;;;;;0.40;0.40;;;;;35.47;41.08;98443.31;4989494;28;8836;-77
2021/04/19 08:21:33;;;;;;;;;0.60;0.60;;;;;35.36;43.35;98451.88;4987391;28;8934;-74
2021/04/19 08:24:14;;;;;;;;;0.80;0.80;;;;;35.24;43.74;98452.63;4982106;28;8834;-75
2021/04/19 08:26:50;;;;;;;;;1.00;1.00;;;;;35.04;43.64;98433.69;4977057;28;8929;-74
2021/04/19 08:29:42;;;;;;;;;0.60;0.60;;;;;34.97;43.25;98444.84;4981957;28;8862;-74
2021/04/19 08:32:12;;;;;;;;;0.80;0.80;;;;;34.81;42.59;98440.25;4977459;28;8843;-74
2021/04/19 08:34:42;;;;;;;;;1.40;1.40;;;;;34.65;42.88;98430.09;4977013;28;8862;-77
2021/04/19 08:37:12;;;;;;;;;0.40;0.40;;;;;34.58;43.25;98435.00;4987299;28;8850;-76
2021/04/19 08:39:40;;;;;;;;;1.00;1.00;;;;;34.48;45.53;98439.59;4982792;28;8856;-76
2021/04/19 08:42:20;;;;;;;;;0.20;0.20;;;;;34.42;45.37;98433.13;4990014;28;8828;-73
2021/04/19 08:44:52;;;;;;;;;0.60;0.60;;;;;34.31;43.90;98435.38;4980909;28;8924;-74
2021/04/19 08:47:20;;;;;;;;;0.60;0.60;;;;;34.18;44.46;98440.03;4980966;28;8863;-73
2021/04/19 08:49:49;;;;;;;;;1.00;1.00;;;;;34.02;45.84;98436.13;4971506;28;9658;-74
2021/04/19 08:52:17;;;;;;;;;1.00;1.00;;;;;33.83;45.51;98434.28;4971975;28;8858;-77
2021/04/19 08:54:46;;;;;;;;;0.80;0.80;;;;;33.88;45.95;98463.09;4972549;28;8862;-75
2021/04/19 08:57:15;;;;;;;;;2.00;2.00;;;;;33.80;46.35;98469.94;4971317;28;8862;-75
2021/04/19 08:59:44;;;;;;;;;3.00;3.00;;;;;33.70;47.47;98475.25;4971409;28;8933;-74
2021/04/19 09:02:15;;;;;;;;;3.20;3.20;;;;;33.54;47.08;98466.28;4971838;28;8842;-74
2021/04/19 09:05:08;;;;;;;;;2.80;2.80;;;;;33.27;47.84;98458.28;4972046;28;8968;-74
2021/04/19 09:07:40;;;;;;;;;3.20;3.20;;;;;32.91;48.63;98452.84;4971591;28;8850;-75
2021/04/19 09:10:11;;;;;;;;;4.00;4.00;;;;;32.68;48.66;98442.75;4970930;28;9706;-75
2021/04/19 09:12:43;;;;;;;;;2.60;2.60;;;;;32.39;48.97;98429.69;4971559;28;8850;-76
2021/04/19 09:15:16;;;;;;;;;2.60;2.60;;;;;32.35;49.30;98458.25;4954689;28;8905;-79
2021/04/19 09:18:04;;;;;;;;;3.40;3.40;;;;;32.18;49.39;98457.38;4971705;28;8858;-78
2021/04/19 09:20:45;;;;;;;;;5.00;5.00;;;;;32.04;49.98;98461.13;4970147;28;8878;-77
2021/04/19 09:23:28;;;;;;;;;3.20;3.20;;;;;31.91;51.43;98464.88;4954657;28;8861;-75
2021/04/19 09:25:57;;;;;;;;;1.20;1.20;;;;;31.80;52.02;98462.31;4974732;28;8871;-73
2021/04/19 09:28:41;;;;;;;;;3.80;3.80;;;;;31.75;51.29;98466.31;4987513;28;8950;-73
2021/04/19 09:31:10;;;;;;;;;3.20;3.20;;;;;31.67;52.22;98475.75;4980798;28;8927;-72
2021/04/19 09:33:40;;;;;;;;;3.80;3.80;;;;;31.60;52.75;98464.97;4968725;28;8828;-75
2021/04/19 09:36:08;;;;;;;;;4.00;4.00;;;;;31.62;52.13;98459.88;4964144;28;8941;-74
2021/04/19 09:41:19;;;;;;;;;4.20;4.20;;;;;31.55;52.78;98470.88;4985906;28;8901;-73
2021/04/19 09:43:59;;;;;;;;;2.60;2.60;;;;;31.51;52.51;98459.25;4981180;28;8820;-73
2021/04/19 09:46:30;;;;;;;;;2.40;2.40;;;;;31.48;52.14;98460.09;4979024;28;8838;-74
2021/04/19 09:49:03;;;;;;;;;2.80;2.80;;;;;31.36;52.32;98457.94;4984767;28;8852;-73
2021/04/19 09:51:37;;;;;;;;;3.20;3.20;;;;;31.33;51.89;98454.09;4979754;28;8950;-72
2021/04/19 09:54:12;;;;;;;;;3.00;3.00;;;;;31.34;52.45;98457.56;4989022;28;8846;-72
2021/04/19 09:56:40;;;;;;;;;2.75;2.75;;;;;31.29;53.09;98455.31;4984171;28;9023;-74
2021/04/19 09:59:10;;;;;;;;;4.00;4.00;;;;;31.17;53.32;98439.56;4984015;28;8836;-72
2021/04/19 10:01:38;;;;;;;;;2.20;2.20;;;;;31.19;53.26;98439.94;4988423;28;8838;-74
2021/04/19 10:04:07;;;;;;;;;3.00;3.00;;;;;31.12;53.01;98438.81;4980553;28;8842;-73
2021/04/19 10:06:46;;;;;;;;;3.50;3.50;;;;;31.03;53.58;98421.44;4980183;28;8846;-73
2021/04/19 10:09:17;;;;;;;;;1.20;1.20;;;;;31.07;53.86;98431.09;4985011;28;8850;-73
2021/04/19 10:11:50;;;;;;;;;1.80;1.80;;;;;31.09;53.55;98449.75;4968420;28;8861;-73
2021/04/19 10:14:18;;;;;;;;;1.80;1.80;;;;;31.04;53.54;98437.38;4972042;28;8858;-73
2021/04/19 10:16:49;;;;;;;;;2.25;2.25;;;;;31.07;53.61;98458.34;4984010;28;9566;-73
2021/04/19 10:19:26;;;;;;;;;2.00;1.80;;;;;30.96;55.46;98446.81;4988487;28;8868;-74
2021/04/19 10:22:15;;;;;;;;;2.40;2.40;;;;;31.01;55.49;98453.75;4977188;28;8858;-73
2021/04/19 10:24:59;;;;;;;;;2.67;2.67;;;;;30.91;54.08;98450.00;4974232;28;8807;-73
2021/04/19 10:27:29;;;;;;;;;1.00;1.00;;;;;30.85;54.64;98446.19;4977835;28;8913;-75
2021/04/19 10:30:14;;;;;;;;;1.60;1.60;;;;;30.83;54.18;98459.44;4979020;28;8832;-74
2021/04/19 10:32:44;;;;;;;;;2.50;2.50;;;;;30.78;54.79;98449.00;4991763;28;8983;-76
2021/04/19 10:35:28;;;;;;;;;2.00;2.00;;;;;30.89;54.31;98467.94;4992486;28;8840;-76
2021/04/19 10:38:11;;;;;;;;;2.75;2.75;;;;;30.90;54.76;98474.94;4993666;28;8894;-73
2021/04/19 10:40:40;;;;;;;;;2.50;2.50;;;;;30.87;55.65;98484.69;4968726;28;8926;-74
2021/04/19 10:43:12;;;;;;;;;2.50;2.50;;;;;30.90;54.20;98486.59;4985363;28;8850;-74
2021/04/19 10:45:41;;;;;;;;;3.00;3.00;;;;;30.91;55.71;98499.03;4968868;28;8855;-74
2021/04/19 10:48:19;;;;;;;;;3.00;3.00;;;;;30.90;54.48;98508.38;4985743;28;8836;-73
2021/04/19 10:50:48;;;;;;;;;2.75;2.75;;;;;30.89;55.56;98506.84;4989221;28;8836;-73
2021/04/19 10:53:33;;;;;;;;;3.00;3.00;;;;;30.88;55.65;98513.47;4991266;28;8863;-76
2021/04/19 10:56:04;;;;;;;;;2.50;2.50;;;;;30.79;56.04;98513.97;4990567;28;8898;-75
2021/04/19 10:58:36;;;;;;;;;4.25;4.25;;;;;30.75;55.19;98507.00;4991621;28;8847;-74
2021/04/19 11:01:06;;;;;;;;;4.25;4.25;;;;;30.81;55.62;98517.03;4991404;28;8859;-72
2021/04/19 11:03:37;;;;;;;;;2.75;2.75;;;;;30.70;55.13;98505.50;4989780;28;8859;-74
2021/04/19 11:06:09;;;;;;;;;3.25;3.25;;;;;30.71;56.53;98509.00;4986137;28;8864;-74
2021/04/19 11:08:59;;;;;;;;;4.00;4.00;;;;;30.73;56.32;98517.53;4990334;28;8937;-75
2021/04/19 11:11:39;;;;;;;;;4.00;4.00;;;;;30.67;56.91;98528.09;4990316;28;8845;-75
2021/04/19 11:14:20;;;;;;;;;3.00;3.00;;;;;30.64;55.93;98531.63;4984943;28;8832;-75
2021/04/19 11:17:02;;;;;;;;;3.00;3.00;;;;;30.61;55.21;98542.56;4980420;28;9579;-76
2021/04/19 11:19:44;;;;;;;;;2.75;2.75;;;;;30.59;56.21;98548.41;4986803;28;8848;-76
2021/04/19 11:22:21;;;;;;;;;3.50;3.50;;;;;30.60;55.23;98557.34;4990878;28;8910;-75
2021/04/19 11:25:28;;;;;;;;;3.50;3.50;;;;;30.57;55.72;98555.41;4987805;28;8859;-75
2021/04/19 11:28:19;;;;;;;;;4.00;4.00;;;;;30.59;53.99;98550.38;4989837;28;8868;-76
2021/04/19 11:30:49;;;;;;;;;2.00;2.00;;;;;30.58;53.97;98551.53;4987158;28;8848;-75
2021/04/19 11:33:22;;;;;;;;;4.50;4.50;;;;;30.56;55.04;98551.13;4985479;28;8836;-74
2021/04/19 11:35:57;;;;;;;;;2.75;2.75;;;;;30.36;55.05;98521.78;4969002;28;8977;-75
2021/04/19 11:38:26;;;;;;;;;3.50;3.50;;;;;30.54;55.08;98550.78;4988620;28;8970;-75
2021/04/19 11:40:59;;;;;;;;;2.00;2.00;;;;;30.35;53.52;98530.34;4989783;28;8848;-75
2021/04/19 11:43:29;;;;;;;;;2.50;2.50;;;;;30.39;53.02;98533.81;4985876;28;8836;-75
2021/04/19 11:46:04;;;;;;;;;3.75;3.75;;;;;30.41;53.49;98555.94;4988528;28;8852;-76
2021/04/19 11:48:36;;;;;;;;;4.75;4.75;;;;;30.26;54.25;98538.97;4987697;28;8918;-76
2021/04/19 11:51:06;;;;;;;;;3.75;3.75;;;;;30.39;54.41;98569.97;4988156;28;8824;-75
2021/04/19 11:53:39;;;;;;;;;3.00;3.00;;;;;30.38;54.11;98570.38;4989911;28;8871;-76
2021/04/19 11:56:11;;;;;;;;;2.00;2.00;;;;;30.35;52.26;98574.66;4985718;28;8844;-75
2021/04/19 11:58:45;;;;;;;;;4.75;4.75;;;;;30.28;52.78;98566.56;4975554;28;9581;-76
2021/04/19 12:01:18;;;;;;;;;4.00;4.00;;;;;30.33;52.62;98584.41;4985691;28;8828;-76
2021/04/19 12:03:48;;;;;;;;;4.00;4.00;;;;;30.25;53.25;98572.81;4984544;28;8875;-75
2021/04/19 12:06:22;;;;;;;;;4.75;4.75;;;;;30.17;53.84;98558.50;4984966;28;9670;-75
2021/04/19 12:08:52;;;;;;;;;3.75;3.75;;;;;30.27;53.32;98573.19;4989449;28;8902;-78
2021/04/19 12:11:23;;;;;;;;;4.75;4.75;;;;;30.19;54.11;98569.75;4990227;28;8821;-76